createdAt,value
2022-10-19T00:02:00.076Z,8.20
2022-10-19T00:04:26.539Z,8.16
2022-10-19T00:06:53.066Z,8.16
2022-10-19T00:09:20.209Z,8.14
2022-10-19T00:11:49.071Z,7.98
2022-10-19T00:14:18.564Z,7.94
2022-10-19T00:16:46.837Z,7.99
2022-10-19T00:19:17.575Z,7.95
2022-10-19T00:21:44.231Z,7.89
2022-10-19T00:24:11.018Z,7.79
2022-10-19T00:26:38.143Z,7.88
2022-10-19T00:29:05.687Z,7.87
2022-10-19T00:31:32.214Z,7.85
2022-10-19T00:33:59.966Z,7.81
2022-10-19T00:36:32.852Z,7.80
2022-10-19T00:39:00.158Z,7.65
2022-10-19T00:41:30.371Z,7.54
2022-10-19T00:44:01.468Z,7.46
2022-10-19T00:46:30.711Z,7.45
2022-10-19T00:49:20.282Z,7.50
2022-10-19T00:51:51.108Z,7.44
2022-10-19T00:54:18.571Z,7.40
2022-10-19T00:56:47.300Z,7.41
2022-10-19T00:59:18.738Z,7.40
2022-10-19T01:01:46.039Z,7.32
2022-10-19T01:04:13.442Z,7.34
2022-10-19T01:06:41.171Z,7.30
2022-10-19T01:09:08.683Z,7.34
2022-10-19T01:11:50.428Z,7.34
2022-10-19T01:14:29.019Z,7.27
2022-10-19T01:17:07.588Z,7.31
2022-10-19T01:20:11.727Z,7.28
2022-10-19T01:22:56.788Z,7.15
2022-10-19T01:25:38.852Z,7.18
2022-10-19T01:28:14.387Z,7.20
2022-10-19T01:30:49.958Z,7.09
2022-10-19T01:33:31.471Z,7.01
2022-10-19T01:36:31.915Z,7.08
2022-10-19T01:39:21.212Z,7.03
2022-10-19T01:41:56.656Z,7.03
2022-10-19T01:44:28.986Z,6.99
2022-10-19T01:47:00.704Z,6.93
2022-10-19T01:49:41.441Z,6.88
2022-10-19T01:52:11.749Z,6.86
2022-10-19T01:54:46.865Z,6.69
2022-10-19T01:57:20.112Z,6.82
2022-10-19T01:59:48.512Z,6.82
2022-10-19T02:02:17.018Z,6.87
2022-10-19T02:04:44.021Z,6.84
2022-10-19T02:07:11.571Z,6.80
2022-10-19T02:09:38.092Z,6.68
2022-10-19T02:12:09.253Z,6.62
2022-10-19T02:14:42.145Z,6.51
2022-10-19T02:17:12.653Z,6.56
2022-10-19T02:19:39.252Z,6.59
2022-10-19T02:22:06.549Z,6.49
2022-10-19T02:24:33.081Z,6.52
2022-10-19T02:27:00.697Z,6.55
2022-10-19T02:29:28.087Z,6.53
2022-10-19T02:31:54.751Z,6.51
2022-10-19T02:34:21.318Z,6.45
2022-10-19T02:36:47.813Z,6.40
2022-10-19T02:39:14.452Z,6.41
2022-10-19T02:42:12.048Z,6.36
2022-10-19T02:44:53.150Z,6.33
2022-10-19T02:47:28.618Z,6.27
2022-10-19T02:49:55.099Z,6.25
2022-10-19T02:52:21.554Z,6.26
2022-10-19T02:54:48.216Z,6.22
2022-10-19T02:57:23.876Z,6.15
2022-10-19T02:59:52.755Z,5.96
2022-10-19T03:02:20.565Z,6.02
2022-10-19T03:07:21.065Z,6.06
2022-10-19T03:09:47.627Z,6.00
2022-10-19T03:12:15.064Z,6.08
2022-10-19T03:14:41.839Z,6.07
2022-10-19T03:17:08.559Z,6.06
2022-10-19T03:19:36.188Z,6.08
2022-10-19T03:22:03.612Z,6.03
2022-10-19T03:24:31.167Z,6.04
2022-10-19T03:26:57.825Z,6.05
2022-10-19T03:29:24.452Z,6.05
2022-10-19T03:31:51.315Z,6.02
2022-10-19T03:34:17.846Z,5.99
2022-10-19T03:36:44.387Z,5.99
2022-10-19T03:39:12.678Z,5.96
2022-10-19T03:41:39.583Z,5.95
2022-10-19T03:44:07.593Z,5.90
2022-10-19T03:46:34.329Z,5.79
2022-10-19T03:49:00.830Z,5.82
2022-10-19T03:51:29.199Z,5.75
2022-10-19T03:53:59.365Z,5.67
2022-10-19T03:56:29.005Z,5.66
2022-10-19T03:58:57.342Z,5.59
2022-10-19T04:01:25.462Z,5.51
2022-10-19T04:03:56.463Z,5.46
2022-10-19T04:06:25.993Z,5.53
2022-10-19T04:08:53.313Z,5.54
2022-10-19T04:11:24.545Z,5.39
2022-10-19T04:13:52.559Z,5.50
2022-10-19T04:16:20.556Z,5.53
2022-10-19T04:18:47.803Z,5.44
2022-10-19T04:21:34.926Z,5.47
2022-10-19T04:24:06.006Z,5.38
2022-10-19T04:26:33.573Z,5.43
2022-10-19T04:29:01.692Z,5.46
2022-10-19T04:31:28.653Z,5.45
2022-10-19T04:33:55.809Z,5.43
2022-10-19T04:36:22.740Z,5.38
2022-10-19T04:38:49.242Z,5.32
2022-10-19T04:41:17.936Z,5.29
2022-10-19T04:43:47.910Z,5.21
2022-10-19T04:46:19.219Z,5.23
2022-10-19T04:48:47.727Z,5.13
2022-10-19T04:51:15.898Z,5.11
2022-10-19T04:53:44.220Z,5.06
2022-10-19T04:56:22.519Z,5.07
2022-10-19T04:58:49.535Z,5.11
2022-10-19T05:01:19.400Z,5.02
2022-10-19T05:03:46.665Z,5.01
2022-10-19T05:06:14.261Z,5.00
2022-10-19T05:08:41.064Z,4.85
2022-10-19T05:11:10.495Z,4.91
2022-10-19T05:13:37.350Z,4.82
2022-10-19T05:16:06.466Z,4.83
2022-10-19T05:18:34.066Z,4.76
2022-10-19T05:21:09.365Z,4.51
2022-10-19T05:23:35.886Z,4.65
2022-10-19T05:26:07.758Z,4.75
2022-10-19T05:28:35.148Z,4.66
2022-10-19T05:31:21.036Z,4.49
2022-10-19T05:33:48.034Z,4.66
2022-10-19T05:36:19.512Z,4.71
2022-10-19T05:38:47.987Z,4.67
2022-10-19T05:41:15.403Z,4.49
2022-10-19T05:43:43.070Z,4.58
2022-10-19T05:46:12.019Z,4.58
2022-10-19T05:48:39.383Z,4.46
2022-10-19T05:51:07.160Z,4.53
2022-10-19T05:53:34.887Z,4.51
2022-10-19T05:56:03.835Z,4.33
2022-10-19T05:58:30.285Z,4.45
2022-10-19T06:00:58.754Z,4.49
2022-10-19T06:03:26.001Z,4.48
2022-10-19T06:05:53.762Z,4.33
2022-10-19T06:08:22.412Z,4.40
2022-10-19T06:10:49.489Z,4.39
2022-10-19T06:13:17.131Z,4.50
2022-10-19T06:15:43.599Z,4.26
2022-10-19T06:18:12.130Z,4.41
2022-10-19T06:20:42.400Z,4.53
2022-10-19T06:23:09.420Z,4.40
2022-10-19T06:25:37.696Z,4.44
2022-10-19T06:28:05.484Z,4.42
2022-10-19T06:30:32.081Z,4.44
2022-10-19T06:32:59.958Z,4.42
2022-10-19T06:35:26.572Z,4.54
2022-10-19T06:37:59.576Z,4.48
2022-10-19T06:40:26.180Z,4.36
2022-10-19T06:42:55.195Z,4.43
2022-10-19T06:45:21.658Z,4.25
2022-10-19T06:50:20.672Z,4.22
2022-10-19T06:52:47.240Z,4.23
2022-10-19T06:55:13.989Z,4.25
2022-10-19T06:57:40.492Z,4.33
2022-10-19T07:00:08.360Z,4.07
2022-10-19T07:02:34.881Z,4.09
2022-10-19T07:05:06.129Z,4.17
2022-10-19T07:07:34.245Z,4.07
2022-10-19T07:10:03.291Z,4.12
2022-10-19T07:12:29.748Z,4.08
2022-10-19T07:14:56.452Z,4.02
2022-10-19T07:17:22.942Z,4.14
2022-10-19T07:19:49.397Z,4.14
2022-10-19T07:22:21.199Z,4.05
2022-10-19T07:24:52.224Z,4.03
2022-10-19T07:27:18.816Z,4.09
2022-10-19T07:29:45.337Z,4.18
2022-10-19T07:32:11.848Z,4.16
2022-10-19T07:34:38.307Z,4.22
2022-10-19T07:37:04.771Z,4.12
2022-10-19T07:39:31.260Z,4.19
2022-10-19T07:41:57.798Z,4.04
2022-10-19T07:44:24.350Z,4.15
2022-10-19T07:46:50.903Z,4.28
2022-10-19T07:49:19.052Z,4.22
2022-10-19T07:51:46.977Z,4.33
2022-10-19T07:54:13.808Z,4.39
2022-10-19T07:56:40.627Z,4.37
2022-10-19T07:59:10.140Z,4.45
2022-10-19T08:01:41.439Z,4.51
2022-10-19T08:06:54.555Z,4.59
2022-10-19T08:09:50.918Z,4.69
2022-10-19T08:12:09.967Z,4.76
2022-10-19T08:14:38.949Z,4.74
2022-10-19T08:17:05.591Z,4.82
2022-10-19T08:19:32.267Z,4.91
2022-10-19T08:21:58.668Z,4.95
2022-10-19T08:24:25.178Z,4.99
2022-10-19T08:26:52.147Z,5.02
2022-10-19T08:29:20.802Z,5.33
2022-10-19T08:31:48.493Z,5.37
2022-10-19T08:34:16.044Z,5.52
2022-10-19T08:36:43.099Z,5.38
2022-10-19T08:39:12.638Z,5.71
2022-10-19T08:41:59.363Z,5.83
2022-10-19T08:44:34.834Z,5.66
2022-10-19T08:47:23.266Z,5.98
2022-10-19T08:49:50.605Z,6.38
2022-10-19T08:52:32.078Z,6.60
2022-10-19T08:55:09.152Z,6.53
2022-10-19T08:57:53.423Z,6.98
2022-10-19T09:03:54.376Z,7.63
2022-10-19T09:06:29.168Z,8.02
2022-10-19T09:08:57.085Z,8.49
2022-10-19T09:11:28.550Z,8.57
2022-10-19T09:14:06.813Z,8.88
2022-10-19T09:16:35.029Z,8.79
2022-10-19T09:19:02.658Z,9.59
2022-10-19T09:21:48.596Z,10.45
2022-10-19T09:24:32.481Z,10.11
2022-10-19T09:27:00.971Z,9.60
2022-10-19T09:29:39.545Z,10.11
2022-10-19T09:32:13.607Z,11.20
2022-10-19T09:34:45.748Z,11.35
2022-10-19T09:37:21.761Z,11.12
2022-10-19T09:39:54.092Z,10.75
2022-10-19T09:42:30.619Z,10.64
2022-10-19T09:44:59.673Z,10.87
2022-10-19T09:47:40.910Z,11.24
2022-10-19T09:50:25.395Z,11.47
2022-10-19T09:53:02.605Z,11.31
2022-10-19T09:55:45.503Z,11.26
2022-10-19T09:58:18.723Z,11.20
2022-10-19T10:00:50.706Z,11.17
2022-10-19T10:03:43.370Z,11.43
2022-10-19T10:06:14.635Z,11.59
2022-10-19T10:08:47.553Z,11.43
2022-10-19T10:11:22.754Z,11.49
2022-10-19T10:13:51.664Z,11.95
2022-10-19T10:16:21.331Z,11.51
2022-10-19T10:18:55.608Z,11.46
2022-10-19T10:21:26.294Z,11.88
2022-10-19T10:24:13.115Z,11.79
2022-10-19T10:26:42.831Z,12.02
2022-10-19T10:29:30.135Z,12.35
2022-10-19T10:32:01.632Z,12.44
2022-10-19T10:34:46.353Z,12.47
2022-10-19T10:37:21.622Z,12.64
2022-10-19T10:39:52.314Z,12.67
2022-10-19T10:42:22.824Z,12.69
2022-10-19T10:44:53.115Z,12.89
2022-10-19T10:47:23.282Z,13.14
2022-10-19T10:49:59.132Z,13.16
2022-10-19T10:52:29.105Z,13.18
2022-10-19T10:55:10.801Z,13.43
2022-10-19T10:57:46.276Z,13.47
2022-10-19T11:00:16.490Z,13.62
2022-10-19T11:02:49.517Z,13.68
2022-10-19T11:05:29.719Z,13.75
2022-10-19T11:08:24.956Z,13.81
2022-10-19T11:11:15.062Z,13.85
2022-10-19T11:13:48.730Z,13.94
2022-10-19T11:16:18.503Z,14.11
2022-10-19T11:18:50.167Z,14.19
2022-10-19T11:21:26.365Z,14.19
2022-10-19T11:24:21.669Z,14.26
2022-10-19T11:26:51.060Z,14.32
2022-10-19T11:29:55.104Z,14.39
2022-10-19T11:32:37.792Z,14.53
2022-10-19T11:35:16.377Z,14.70
2022-10-19T11:38:18.903Z,14.80
2022-10-19T11:41:18.341Z,14.85
2022-10-19T11:44:04.355Z,14.95
2022-10-19T11:46:42.558Z,14.99
2022-10-19T11:49:26.275Z,15.09
2022-10-19T11:51:59.716Z,15.19
2022-10-19T11:54:38.905Z,15.30
2022-10-19T11:57:24.886Z,15.40
2022-10-19T12:00:15.174Z,15.46
2022-10-19T12:03:03.926Z,15.55
2022-10-19T12:05:48.825Z,15.67
2022-10-19T12:08:55.376Z,15.74
2022-10-19T12:11:23.659Z,15.90
2022-10-19T12:13:58.465Z,15.94
2022-10-19T12:16:35.703Z,16.00
2022-10-19T12:19:04.632Z,16.08
2022-10-19T12:21:41.179Z,16.15
2022-10-19T12:24:15.829Z,16.22
2022-10-19T12:26:43.680Z,16.26
2022-10-19T12:29:21.093Z,16.27
2022-10-19T12:31:49.049Z,16.41
2022-10-19T12:34:37.728Z,16.59
2022-10-19T12:37:09.393Z,16.50
2022-10-19T12:39:53.553Z,16.74
2022-10-19T12:42:32.626Z,16.87
2022-10-19T12:45:08.473Z,17.02
2022-10-19T12:47:35.290Z,17.08
2022-10-19T12:50:02.188Z,17.19
2022-10-19T12:52:52.372Z,17.22
2022-10-19T12:55:24.800Z,17.34
2022-10-19T12:58:06.606Z,17.37
2022-10-19T13:00:36.546Z,17.50
2022-10-19T13:03:25.147Z,17.68
2022-10-19T13:06:07.243Z,17.74
2022-10-19T13:08:43.409Z,17.76
2022-10-19T13:11:17.411Z,17.92
2022-10-19T13:13:56.058Z,17.95
2022-10-19T13:16:38.360Z,18.00
2022-10-19T13:19:14.076Z,18.09
2022-10-19T13:22:00.375Z,18.10
2022-10-19T13:24:27.068Z,18.14
2022-10-19T13:26:59.800Z,18.24
2022-10-19T13:29:28.953Z,18.36
2022-10-19T13:31:55.516Z,18.46
2022-10-19T13:34:25.104Z,18.51
2022-10-19T13:37:02.986Z,18.52
2022-10-19T13:39:30.473Z,18.64
2022-10-19T13:41:57.375Z,18.75
2022-10-19T13:44:30.882Z,18.86
2022-10-19T13:47:23.343Z,18.92
2022-10-19T13:49:55.846Z,19.00
2022-10-19T13:52:37.512Z,19.03
2022-10-19T13:55:45.209Z,19.14
2022-10-19T13:58:52.318Z,19.10
2022-10-19T14:01:52.896Z,19.16
2022-10-19T14:04:25.383Z,19.19
2022-10-19T14:07:00.769Z,19.13
2022-10-19T14:09:47.281Z,19.08
2022-10-19T14:12:34.168Z,18.99
2022-10-19T14:15:00.742Z,18.68
2022-10-19T14:17:34.265Z,18.76
2022-10-19T14:20:01.268Z,18.75
2022-10-19T14:22:36.227Z,18.63
2022-10-19T14:25:29.809Z,18.50
2022-10-19T14:28:06.662Z,18.37
2022-10-19T14:30:35.774Z,18.30
2022-10-19T14:33:09.019Z,18.21
2022-10-19T14:35:38.004Z,18.03
2022-10-19T14:38:15.931Z,18.09
2022-10-19T14:40:42.694Z,18.03
2022-10-19T14:43:20.761Z,18.00
2022-10-19T14:46:14.087Z,17.87
2022-10-19T14:48:52.160Z,17.88
2022-10-19T14:51:30.915Z,17.79
2022-10-19T14:54:05.927Z,17.70
2022-10-19T14:56:43.219Z,17.61
2022-10-19T14:59:26.371Z,17.54
2022-10-19T15:01:57.150Z,17.51
2022-10-19T15:04:30.981Z,17.30
2022-10-19T15:07:01.255Z,17.30
2022-10-19T15:09:37.775Z,17.29
2022-10-19T15:12:19.529Z,17.19
2022-10-19T15:14:47.784Z,17.06
2022-10-19T15:17:30.424Z,17.08
2022-10-19T15:20:01.129Z,17.00
2022-10-19T15:22:31.038Z,16.86
2022-10-19T15:25:06.587Z,16.80
2022-10-19T15:27:35.624Z,16.66
2022-10-19T15:30:06.562Z,16.68
2022-10-19T15:32:36.029Z,16.65
2022-10-19T15:35:12.024Z,16.42
2022-10-19T15:37:43.546Z,16.33
2022-10-19T15:40:21.727Z,16.28
2022-10-19T15:42:49.059Z,16.11
2022-10-19T15:45:36.118Z,15.84
2022-10-19T15:48:21.640Z,16.01
2022-10-19T15:50:52.008Z,15.79
2022-10-19T15:53:19.812Z,15.82
2022-10-19T15:55:46.598Z,15.70
2022-10-19T15:58:13.905Z,15.66
2022-10-19T16:00:41.599Z,15.52
2022-10-19T16:03:09.144Z,15.51
2022-10-19T16:05:36.595Z,15.51
2022-10-19T16:08:03.625Z,15.18
2022-10-19T16:10:30.120Z,15.11
2022-10-19T16:12:59.271Z,15.02
2022-10-19T16:15:26.850Z,14.76
2022-10-19T16:17:55.863Z,14.77
2022-10-19T16:20:23.180Z,14.75
2022-10-19T16:22:50.377Z,14.61
2022-10-19T16:25:20.617Z,14.56
2022-10-19T16:27:47.184Z,14.40
2022-10-19T16:30:14.258Z,14.33
2022-10-19T16:35:08.716Z,14.00
2022-10-19T16:37:35.440Z,13.96
2022-10-19T16:40:02.344Z,13.94
2022-10-19T16:42:30.578Z,13.89
2022-10-19T16:44:57.162Z,13.83
2022-10-19T16:47:23.703Z,13.77
2022-10-19T16:49:58.008Z,13.80
2022-10-19T16:52:24.633Z,13.70
2022-10-19T16:54:51.138Z,13.62
2022-10-19T16:57:17.815Z,13.62
2022-10-19T16:59:44.579Z,13.56
2022-10-19T17:02:11.696Z,13.36
2022-10-19T17:04:39.047Z,13.36
2022-10-19T17:07:05.575Z,13.41
2022-10-19T17:09:49.733Z,13.42
2022-10-19T17:12:17.775Z,13.26
2022-10-19T17:14:44.228Z,13.16
2022-10-19T17:17:11.460Z,13.00
2022-10-19T17:19:38.169Z,12.91
2022-10-19T17:22:06.396Z,12.83
2022-10-19T17:24:33.097Z,12.63
2022-10-19T17:27:02.639Z,12.61
2022-10-19T17:29:29.244Z,12.85
2022-10-19T17:31:55.817Z,12.85
2022-10-19T17:34:22.784Z,12.70
2022-10-19T17:36:49.483Z,12.73
2022-10-19T17:39:19.221Z,12.49
2022-10-19T17:41:47.941Z,12.58
2022-10-19T17:44:16.796Z,12.53
2022-10-19T17:46:43.991Z,12.33
2022-10-19T17:49:10.896Z,12.34
2022-10-19T17:51:38.336Z,12.27
2022-10-19T17:54:07.694Z,12.19
2022-10-19T17:56:35.916Z,12.24
2022-10-19T17:59:07.652Z,12.33
2022-10-19T18:01:35.832Z,12.31
2022-10-19T18:04:02.303Z,12.18
2022-10-19T18:06:34.724Z,12.13
2022-10-19T18:09:03.851Z,12.15
2022-10-19T18:11:40.056Z,11.97
2022-10-19T18:14:08.750Z,12.04
2022-10-19T18:16:40.473Z,11.94
2022-10-19T18:19:08.134Z,11.93
2022-10-19T18:21:38.739Z,11.81
2022-10-19T18:24:09.041Z,11.81
2022-10-19T18:26:39.010Z,11.52
2022-10-19T18:29:16.492Z,11.47
2022-10-19T18:31:43.318Z,11.48
2022-10-19T18:34:15.095Z,11.48
2022-10-19T18:36:42.022Z,11.35
2022-10-19T18:39:08.622Z,11.36
2022-10-19T18:41:35.049Z,11.25
2022-10-19T18:44:05.472Z,11.16
2022-10-19T18:46:34.116Z,11.21
2022-10-19T18:49:01.479Z,11.15
2022-10-19T18:51:28.779Z,11.04
2022-10-19T18:53:55.601Z,10.98
2022-10-19T18:56:23.022Z,10.94
2022-10-19T18:58:50.484Z,10.93
2022-10-19T19:01:24.331Z,10.90
2022-10-19T19:03:52.975Z,10.81
2022-10-19T19:06:25.203Z,10.67
2022-10-19T19:08:55.074Z,10.74
2022-10-19T19:11:28.111Z,10.75
2022-10-19T19:14:00.553Z,10.71
2022-10-19T19:16:30.516Z,10.73
2022-10-19T19:18:58.675Z,10.61
2022-10-19T19:21:28.421Z,10.65
2022-10-19T19:23:57.801Z,10.61
2022-10-19T19:26:27.176Z,10.57
2022-10-19T19:28:54.205Z,10.51
2022-10-19T19:31:20.806Z,10.53
2022-10-19T19:33:48.199Z,10.49
2022-10-19T19:36:17.103Z,10.43
2022-10-19T19:38:45.664Z,10.32
2022-10-19T19:41:15.190Z,10.37
2022-10-19T19:43:42.648Z,10.32
2022-10-19T19:46:12.967Z,10.29
2022-10-19T19:48:42.749Z,10.25
2022-10-19T19:51:17.301Z,10.21
2022-10-19T19:53:44.352Z,10.21
2022-10-19T19:56:12.417Z,10.13
2022-10-19T19:58:39.684Z,10.12
2022-10-19T20:01:15.064Z,10.08
2022-10-19T20:03:42.514Z,10.07
2022-10-19T20:06:10.451Z,10.03
2022-10-19T20:08:37.509Z,10.03
2022-10-19T20:11:09.680Z,9.98
2022-10-19T20:13:36.511Z,9.88
2022-10-19T20:16:12.499Z,9.95
2022-10-19T20:18:40.354Z,9.95
2022-10-19T20:21:07.207Z,9.85
2022-10-19T20:23:34.094Z,9.86
2022-10-19T20:26:14.593Z,9.86
2022-10-19T20:28:41.118Z,9.84
2022-10-19T20:31:09.214Z,9.86
2022-10-19T20:33:37.984Z,9.80
2022-10-19T20:36:04.915Z,9.79
2022-10-19T20:38:31.391Z,9.75
2022-10-19T20:40:57.852Z,9.67
2022-10-19T20:43:24.427Z,9.71
2022-10-19T20:45:50.880Z,9.67
2022-10-19T20:48:17.329Z,9.55
2022-10-19T20:50:43.946Z,9.61
2022-10-19T20:53:12.556Z,9.51
2022-10-19T20:55:39.548Z,9.52
2022-10-19T20:58:06.014Z,9.53
2022-10-19T21:00:33.019Z,9.56
2022-10-19T21:02:59.663Z,9.57
2022-10-19T21:05:26.107Z,9.52
2022-10-19T21:07:53.280Z,9.54
2022-10-19T21:10:19.790Z,9.51
2022-10-19T21:12:46.218Z,9.48
2022-10-19T21:15:12.790Z,9.50
2022-10-19T21:17:39.438Z,9.42
2022-10-19T21:20:06.421Z,9.37
2022-10-19T21:22:39.054Z,9.37
2022-10-19T21:25:06.119Z,9.34
2022-10-19T21:27:32.752Z,9.24
2022-10-19T21:29:59.559Z,9.31
2022-10-19T21:32:26.650Z,9.33
2022-10-19T21:34:53.255Z,9.35
2022-10-19T21:37:19.755Z,9.31
2022-10-19T21:39:46.191Z,9.29
2022-10-19T21:42:12.721Z,9.30
2022-10-19T21:44:39.243Z,9.29
2022-10-19T21:47:06.300Z,9.26
2022-10-19T21:49:32.773Z,9.27
2022-10-19T21:51:59.199Z,9.23
2022-10-19T21:54:25.675Z,9.28
2022-10-19T21:56:53.288Z,9.25
2022-10-19T21:59:20.140Z,9.28
2022-10-19T22:01:46.710Z,9.25
2022-10-19T22:04:16.214Z,9.32
2022-10-19T22:06:43.266Z,9.30
2022-10-19T22:09:13.243Z,9.30
2022-10-19T22:11:39.927Z,9.31
2022-10-19T22:14:06.527Z,9.31
2022-10-19T22:16:33.729Z,9.31
2022-10-19T22:19:00.243Z,9.30
2022-10-19T22:21:29.445Z,9.29
2022-10-19T22:24:02.124Z,9.28
2022-10-19T22:26:31.233Z,9.33
2022-10-19T22:28:59.580Z,9.25
2022-10-19T22:31:27.665Z,9.30
2022-10-19T22:33:54.191Z,9.29
2022-10-19T22:36:20.911Z,9.27
2022-10-19T22:38:47.626Z,9.27
2022-10-19T22:41:14.232Z,9.22
2022-10-19T22:43:40.829Z,9.23
2022-10-19T22:46:07.576Z,9.24
2022-10-19T22:48:34.115Z,9.24
2022-10-19T22:51:00.562Z,9.22
2022-10-19T22:53:27.128Z,9.19
2022-10-19T22:55:53.593Z,9.20
2022-10-19T22:58:20.319Z,9.22
2022-10-19T23:01:17.512Z,9.26
2022-10-19T23:03:44.534Z,9.22
2022-10-19T23:06:13.417Z,9.20
2022-10-19T23:08:50.313Z,9.24
2022-10-19T23:11:17.644Z,9.24
2022-10-19T23:13:45.878Z,9.21
2022-10-19T23:16:12.747Z,9.26
2022-10-19T23:18:41.101Z,9.25
2022-10-19T23:21:11.690Z,9.22
2022-10-19T23:23:39.576Z,9.27
2022-10-19T23:26:08.395Z,9.27
2022-10-19T23:28:37.894Z,9.24
2022-10-19T23:31:07.892Z,9.23
2022-10-19T23:33:35.582Z,9.21
2022-10-19T23:36:21.045Z,9.19
2022-10-19T23:38:49.847Z,9.24
2022-10-19T23:41:17.951Z,9.26
2022-10-19T23:43:45.135Z,9.22
2022-10-19T23:46:11.966Z,9.21
2022-10-19T23:48:39.246Z,9.21
2022-10-19T23:51:12.524Z,9.22
2022-10-19T23:53:42.557Z,9.22
2022-10-19T23:56:19.766Z,9.23
2022-10-19T23:58:47.459Z,9.24
